Time;durP1;ratioP1;P1;durP2;ratioP2;P2;SDS_P1;SDS_P2;PMS_P1;PMS_P2;Temp;Humidity;BMP_temperature;BMP_pressure;BME280_temperature;BME280_humidity;BME280_pressure;Samples;Min_cycle;Max_cycle;Signal;HPM_P1;HPM_P2
2022/05/22 00:01:45;;;;;;;8.38;4.30;;;11.80;99.90;;;;;;5095091;28;20024;-76
2022/05/22 00:04:11;;;;;;;12.27;5.55;;;11.80;99.90;;;;;;5094297;28;20024;-75
2022/05/22 00:06:36;;;;;;;9.93;5.28;;;11.70;99.90;;;;;;5095163;28;20054;-76
2022/05/22 00:09:03;;;;;;;11.50;5.90;;;11.70;99.90;;;;;;5094543;28;20086;-76
2022/05/22 00:11:28;;;;;;;8.65;4.32;;;11.60;99.90;;;;;;5094700;28;20066;-75
2022/05/22 00:13:54;;;;;;;6.88;3.95;;;11.60;99.90;;;;;;5094770;28;20032;-75
2022/05/22 00:19:06;;;;;;;8.52;4.03;;;11.60;99.90;;;;;;5094338;28;20054;-76
2022/05/22 00:21:31;;;;;;;10.82;4.82;;;11.60;99.90;;;;;;5094286;28;20534;-75
2022/05/22 00:23:57;;;;;;;10.18;5.10;;;11.60;99.90;;;;;;5094750;28;20028;-76
2022/05/22 00:26:22;;;;;;;7.25;3.78;;;11.60;99.90;;;;;;5094604;28;20103;-76
2022/05/22 00:28:48;;;;;;;10.30;5.50;;;11.60;99.90;;;;;;5094589;28;20027;-75
2022/05/22 00:31:14;;;;;;;8.95;4.68;;;11.50;99.90;;;;;;5094685;28;20035;-75
2022/05/22 00:33:40;;;;;;;6.93;4.35;;;11.50;99.90;;;;;;5094210;28;20028;-75
2022/05/22 00:36:06;;;;;;;8.43;4.05;;;11.40;99.90;;;;;;5094132;28;20461;-76
2022/05/22 00:38:32;;;;;;;6.35;4.18;;;11.50;99.90;;;;;;5098138;28;20020;-76
2022/05/22 00:40:57;;;;;;;8.48;4.70;;;11.40;99.90;;;;;;5099862;28;20028;-75
2022/05/22 00:43:50;;;;;;;10.82;4.97;;;11.40;99.90;;;;;;5094584;28;20491;-75
2022/05/22 00:46:18;;;;;;;9.63;3.92;;;11.40;99.90;;;;;;5093968;28;20024;-76
2022/05/22 00:48:49;;;;;;;8.25;3.58;;;11.30;99.90;;;;;;5094147;28;20024;-76
2022/05/22 00:51:38;;;;;;;4.25;2.90;;;11.30;99.90;;;;;;5094593;28;20562;-76
2022/05/22 00:54:29;;;;;;;8.35;3.85;;;11.30;99.90;;;;;;5092641;28;20328;-76
2022/05/22 00:57:06;;;;;;;7.00;3.80;;;11.20;99.90;;;;;;5093792;28;20127;-75
2022/05/22 00:59:38;;;;;;;3.40;2.63;;;11.20;99.90;;;;;;5094192;28;20055;-77
2022/05/22 01:02:04;;;;;;;4.43;2.60;;;11.20;99.90;;;;;;5093899;28;20098;-76
2022/05/22 01:04:33;;;;;;;4.25;2.80;;;11.10;99.90;;;;;;5094110;28;20024;-75
2022/05/22 01:07:01;;;;;;;3.38;2.95;;;11.10;99.90;;;;;;5093452;28;20093;-75
2022/05/22 01:09:27;;;;;;;9.80;2.90;;;11.00;99.90;;;;;;5094431;28;20387;-76
2022/05/22 01:11:58;;;;;;;3.33;2.42;;;11.10;99.90;;;;;;5095399;28;20464;-76
2022/05/22 01:14:25;;;;;;;3.65;2.67;;;11.00;99.90;;;;;;5094641;28;20024;-75
2022/05/22 01:16:51;;;;;;;4.68;2.97;;;11.00;99.90;;;;;;5094058;28;20433;-75
2022/05/22 01:19:23;;;;;;;3.63;3.03;;;10.90;99.90;;;;;;5093744;28;20036;-75
2022/05/22 01:21:54;;;;;;;6.47;3.00;;;10.90;99.90;;;;;;5092866;28;20111;-75
2022/05/22 01:24:20;;;;;;;4.65;3.13;;;11.00;99.90;;;;;;5093459;28;20031;-75
2022/05/22 01:26:46;;;;;;;6.07;2.90;;;10.90;99.90;;;;;;5093756;28;20032;-75
2022/05/22 01:29:11;;;;;;;3.80;3.28;;;10.80;99.90;;;;;;5092700;28;20028;-76
2022/05/22 01:31:37;;;;;;;5.72;3.47;;;10.80;99.90;;;;;;5093171;28;20372;-76
2022/05/22 01:34:02;;;;;;;4.68;3.30;;;10.80;99.90;;;;;;5093479;28;20119;-76
2022/05/22 01:36:28;;;;;;;4.28;2.58;;;10.80;99.90;;;;;;5092582;28;20034;-76
2022/05/22 01:38:53;;;;;;;3.35;2.20;;;10.80;99.90;;;;;;5092689;28;20028;-76
2022/05/22 01:41:19;;;;;;;1.60;1.50;;;10.80;99.90;;;;;;5093115;28;20032;-76
2022/05/22 01:43:45;;;;;;;3.22;1.98;;;10.70;99.90;;;;;;5092604;28;20024;-76
2022/05/22 01:46:10;;;;;;;2.92;2.08;;;10.70;99.90;;;;;;5092689;28;20028;-76
2022/05/22 01:48:36;;;;;;;2.15;1.90;;;10.60;99.90;;;;;;5092937;28;20043;-74
2022/05/22 01:51:02;;;;;;;2.85;2.25;;;10.60;99.90;;;;;;5092207;28;20028;-74
2022/05/22 01:53:27;;;;;;;7.53;2.90;;;10.60;99.90;;;;;;5092705;28;20024;-76
2022/05/22 01:55:53;;;;;;;5.50;2.55;;;10.60;99.90;;;;;;5092529;28;20028;-76
2022/05/22 01:58:18;;;;;;;5.45;2.92;;;10.50;99.90;;;;;;5092498;28;20040;-76
2022/05/22 02:00:44;;;;;;;5.53;3.08;;;10.60;99.90;;;;;;5092695;28;20039;-76
2022/05/22 02:03:10;;;;;;;3.47;2.85;;;10.50;99.90;;;;;;5091867;28;20503;-76
2022/05/22 02:05:36;;;;;;;5.35;3.03;;;10.50;99.90;;;;;;5092531;28;20039;-75
2022/05/22 02:08:22;;;;;;;5.43;4.05;;;10.50;99.90;;;;;;5092089;28;20070;-76
2022/05/22 02:10:58;;;;;;;3.35;3.10;;;10.50;99.90;;;;;;5091195;28;20483;-76
2022/05/22 02:13:27;;;;;;;6.35;3.70;;;10.50;99.90;;;;;;5092777;28;20020;-76
2022/05/22 02:15:54;;;;;;;5.75;3.28;;;10.50;99.90;;;;;;5092424;28;20032;-73
2022/05/22 02:18:20;;;;;;;5.03;3.40;;;10.50;99.90;;;;;;5091972;28;20063;-76
2022/05/22 02:20:47;;;;;;;5.40;3.40;;;10.50;99.90;;;;;;5092164;28;20468;-76
2022/05/22 02:23:14;;;;;;;7.45;4.53;;;10.50;99.90;;;;;;5092700;28;20099;-76
2022/05/22 02:25:43;;;;;;;8.20;5.13;;;10.50;99.90;;;;;;5092154;28;20074;-75
2022/05/22 02:28:11;;;;;;;6.05;4.10;;;10.50;99.90;;;;;;5091963;28;20097;-75
2022/05/22 02:30:38;;;;;;;6.97;4.07;;;10.50;99.90;;;;;;5092376;28;20055;-74
2022/05/22 02:33:05;;;;;;;13.43;4.57;;;10.50;99.90;;;;;;5091852;28;20422;-75
2022/05/22 02:35:31;;;;;;;5.13;4.05;;;10.50;99.90;;;;;;5092522;28;20054;-76
2022/05/22 02:37:57;;;;;;;10.25;4.25;;;10.50;99.90;;;;;;5092079;28;20480;-74
2022/05/22 02:40:25;;;;;;;8.55;4.70;;;10.40;99.90;;;;;;5091721;28;20046;-74
2022/05/22 02:42:52;;;;;;;10.40;4.95;;;10.50;99.90;;;;;;5092096;28;20069;-75
2022/05/22 02:45:21;;;;;;;9.57;4.78;;;10.40;99.90;;;;;;5091814;28;20039;-75
2022/05/22 02:47:47;;;;;;;9.02;4.43;;;10.50;99.90;;;;;;5094025;28;20076;-75
2022/05/22 02:50:14;;;;;;;10.73;4.80;;;10.50;99.90;;;;;;5094861;28;20031;-75
2022/05/22 02:52:40;;;;;;;10.30;4.75;;;10.50;99.90;;;;;;5091914;28;20119;-75
2022/05/22 02:55:08;;;;;;;8.70;4.78;;;10.50;99.90;;;;;;5091865;28;20103;-74
2022/05/22 02:57:36;;;;;;;7.65;5.07;;;10.50;99.90;;;;;;5092156;28;20052;-77
2022/05/22 03:00:07;;;;;;;7.75;4.78;;;10.50;99.90;;;;;;5091232;28;20064;-77
2022/05/22 03:02:33;;;;;;;8.25;4.55;;;10.50;99.90;;;;;;5092080;28;20020;-76
2022/05/22 03:04:59;;;;;;;10.32;5.32;;;10.50;99.90;;;;;;5091746;28;20483;-74
2022/05/22 03:07:24;;;;;;;8.82;5.28;;;10.50;99.90;;;;;;5091635;28;20161;-77
2022/05/22 03:09:50;;;;;;;7.53;4.80;;;10.50;99.90;;;;;;5091578;28;20032;-75
2022/05/22 03:12:18;;;;;;;9.60;5.78;;;10.50;99.90;;;;;;5091925;28;20028;-74
2022/05/22 03:14:49;;;;;;;8.73;5.20;;;10.50;99.90;;;;;;5091331;28;20028;-75
2022/05/22 03:17:15;;;;;;;;;;;10.50;99.90;;;;;;5094691;28;20031;-76
2022/05/22 03:19:40;;;;;;;14.20;5.75;;;10.50;99.90;;;;;;5096752;28;19918;-76
2022/05/22 03:22:09;;;;;;;9.07;4.75;;;10.50;99.90;;;;;;5095521;28;20032;-76
2022/05/22 03:24:35;;;;;;;10.20;5.07;;;10.50;99.90;;;;;;5096038;28;20040;-76
2022/05/22 03:27:02;;;;;;;14.32;5.95;;;10.50;99.90;;;;;;5095666;28;20127;-75
2022/05/22 03:29:28;;;;;;;7.25;4.72;;;10.40;99.90;;;;;;5095282;28;20028;-75
2022/05/22 03:31:53;;;;;;;10.95;4.50;;;10.40;99.90;;;;;;5095205;28;20031;-76
2022/05/22 03:34:19;;;;;;;8.80;4.53;;;10.40;99.90;;;;;;5095645;28;20585;-76
2022/05/22 03:36:45;;;;;;;5.60;4.03;;;10.40;99.90;;;;;;5094963;28;20043;-77
2022/05/22 03:39:10;;;;;;;7.35;3.63;;;10.30;99.90;;;;;;5094821;28;20020;-76
2022/05/22 03:41:36;;;;;;;5.85;3.88;;;10.30;99.90;;;;;;5094698;28;20032;-76
2022/05/22 03:44:02;;;;;;;5.82;3.53;;;10.30;99.90;;;;;;5094873;28;20032;-76
2022/05/22 03:46:28;;;;;;;4.78;3.25;;;10.20;99.90;;;;;;5095437;28;20028;-76
2022/05/22 03:48:54;;;;;;;4.80;4.30;;;10.20;99.90;;;;;;5094629;28;20030;-76
2022/05/22 03:51:19;;;;;;;4.97;3.83;;;10.20;99.90;;;;;;5095219;28;20065;-76
2022/05/22 03:53:45;;;;;;;7.07;4.05;;;10.20;99.90;;;;;;5095059;28;20036;-76
2022/05/22 03:56:12;;;;;;;6.93;5.15;;;10.20;99.90;;;;;;5094416;28;20027;-76
2022/05/22 03:58:38;;;;;;;6.55;4.28;;;10.30;99.90;;;;;;5094920;28;20044;-76
2022/05/22 04:01:04;;;;;;;5.20;4.43;;;10.30;99.90;;;;;;5094595;28;20115;-75
2022/05/22 04:03:30;;;;;;;12.65;4.72;;;10.30;99.90;;;;;;5094661;28;20024;-76
2022/05/22 04:05:55;;;;;;;9.07;4.70;;;10.40;99.90;;;;;;5094473;28;20031;-75
2022/05/22 04:08:21;;;;;;;9.90;5.18;;;10.40;99.90;;;;;;5094969;28;20071;-75
2022/05/22 04:10:47;;;;;;;9.43;4.75;;;10.50;99.90;;;;;;5094709;28;20020;-74
2022/05/22 04:13:13;;;;;;;9.35;5.82;;;10.50;99.90;;;;;;5094874;28;20028;-74
2022/05/22 04:15:38;;;;;;;12.82;5.72;;;10.60;99.90;;;;;;5095082;28;20492;-75
2022/05/22 04:18:04;;;;;;;11.88;5.75;;;10.70;99.90;;;;;;5093895;28;20244;-75
2022/05/22 04:20:30;;;;;;;9.25;5.00;;;10.80;99.90;;;;;;5094470;28;20115;-74
2022/05/22 04:25:59;;;;;;;12.52;5.45;;;11.00;99.90;;;;;;5094484;28;20486;-76
2022/05/22 04:28:26;;;;;;;10.75;6.03;;;11.00;99.90;;;;;;5094524;28;20036;-76
2022/05/22 04:30:52;;;;;;;11.85;6.28;;;11.10;99.90;;;;;;5093723;28;20563;-75
2022/05/22 04:33:18;;;;;;;14.48;5.50;;;11.10;99.90;;;;;;5094468;28;20085;-75
2022/05/22 04:35:44;;;;;;;12.23;5.78;;;11.20;99.90;;;;;;5094196;28;20055;-76
2022/05/22 04:38:11;;;;;;;13.93;6.25;;;11.20;99.90;;;;;;5093726;28;20051;-77
2022/05/22 04:40:37;;;;;;;8.07;6.15;;;11.20;99.90;;;;;;5094433;28;20032;-77
2022/05/22 04:43:04;;;;;;;12.18;5.68;;;11.20;99.90;;;;;;5093843;28;20028;-76
2022/05/22 04:45:30;;;;;;;11.25;5.47;;;11.20;99.90;;;;;;5093672;28;20468;-76
2022/05/22 04:47:55;;;;;;;14.55;5.80;;;11.30;99.90;;;;;;5093744;28;20026;-75
2022/05/22 04:50:21;;;;;;;8.45;5.32;;;11.30;99.90;;;;;;5094073;28;20032;-76
2022/05/22 04:52:46;;;;;;;8.43;5.25;;;11.40;99.90;;;;;;5094161;28;20063;-76
2022/05/22 04:55:12;;;;;;;7.78;5.80;;;11.40;99.90;;;;;;5075379;28;20030;-76
2022/05/22 04:57:38;;;;;;;10.65;5.43;;;11.50;99.90;;;;;;5093835;28;20557;-76
2022/05/22 05:00:05;;;;;;;7.60;5.28;;;11.60;99.90;;;;;;5092986;28;20031;-75
2022/05/22 05:02:31;;;;;;;14.25;6.40;;;11.70;99.90;;;;;;5093656;28;20024;-75
2022/05/22 05:04:58;;;;;;;14.90;6.10;;;11.80;99.90;;;;;;5093247;28;20789;-75
2022/05/22 05:07:24;;;;;;;14.38;6.57;;;11.90;99.90;;;;;;5090886;28;20020;-76
2022/05/22 05:09:50;;;;;;;10.55;5.65;;;12.10;99.90;;;;;;5091649;28;20480;-75
2022/05/22 05:12:17;;;;;;;13.55;5.47;;;12.20;99.90;;;;;;5091878;28;20036;-76
2022/05/22 05:14:42;;;;;;;7.72;5.28;;;12.30;99.90;;;;;;5091571;28;20039;-76
2022/05/22 05:17:13;;;;;;;12.40;6.25;;;12.40;99.90;;;;;;5090790;28;20479;-75
2022/05/22 05:19:39;;;;;;;10.07;6.45;;;12.40;99.90;;;;;;5091132;28;20029;-76
2022/05/22 05:22:05;;;;;;;12.57;5.60;;;12.50;99.90;;;;;;5091247;28;20024;-76
2022/05/22 05:24:30;;;;;;;16.33;7.80;;;12.60;99.90;;;;;;5091967;28;20012;-75
2022/05/22 05:26:56;;;;;;;11.15;6.80;;;12.70;99.90;;;;;;5092065;28;20480;-76
2022/05/22 05:29:22;;;;;;;11.18;6.38;;;12.70;99.90;;;;;;5092549;28;20016;-75
2022/05/22 05:31:48;;;;;;;10.38;7.70;;;12.80;99.90;;;;;;5091775;28;20412;-76
2022/05/22 05:34:14;;;;;;;10.02;7.57;;;12.90;99.90;;;;;;5091266;28;20024;-76
2022/05/22 05:36:40;;;;;;;11.25;7.65;;;12.90;99.90;;;;;;5091893;28;20460;-76
2022/05/22 05:39:07;;;;;;;11.00;7.40;;;13.00;99.90;;;;;;5090944;28;20031;-76
2022/05/22 05:41:35;;;;;;;19.08;8.15;;;13.00;99.90;;;;;;5092075;28;20038;-75
2022/05/22 05:44:05;;;;;;;18.27;8.48;;;13.10;99.90;;;;;;5096439;28;20078;-76
2022/05/22 05:46:32;;;;;;;11.20;8.23;;;13.10;99.90;;;;;;5094387;28;20032;-75
2022/05/22 05:48:57;;;;;;;14.10;7.05;;;13.10;99.90;;;;;;5090922;28;20055;-74
2022/05/22 05:51:23;;;;;;;22.58;8.38;;;13.10;99.90;;;;;;5092042;28;20050;-76
2022/05/22 05:53:49;;;;;;;10.60;7.55;;;13.20;99.90;;;;;;5090754;28;20479;-76
2022/05/22 05:56:14;;;;;;;19.13;8.02;;;13.20;99.90;;;;;;5090755;28;20031;-76
2022/05/22 05:58:40;;;;;;;10.10;7.03;;;13.30;99.90;;;;;;5091497;28;20245;-76
2022/05/22 06:01:05;;;;;;;13.57;7.65;;;13.30;99.90;;;;;;5091083;28;20128;-76
2022/05/22 06:03:31;;;;;;;8.93;6.97;;;13.40;99.90;;;;;;5091107;28;20036;-74
2022/05/22 06:05:57;;;;;;;15.23;8.07;;;13.40;99.90;;;;;;5091100;28;20095;-76
2022/05/22 06:08:23;;;;;;;10.52;8.18;;;13.50;99.90;;;;;;5091405;28;20154;-75
2022/05/22 06:10:48;;;;;;;14.02;6.82;;;13.50;99.90;;;;;;5090810;28;20020;-76
2022/05/22 06:13:14;;;;;;;14.05;8.07;;;13.60;99.90;;;;;;5091331;28;20283;-75
2022/05/22 06:15:39;;;;;;;19.02;8.13;;;13.60;99.90;;;;;;5090986;28;20105;-75
2022/05/22 06:18:05;;;;;;;12.75;7.20;;;13.70;99.90;;;;;;5090757;28;20030;-74
2022/05/22 06:20:31;;;;;;;13.05;6.68;;;13.70;99.90;;;;;;5091038;28;20032;-74
2022/05/22 06:22:56;;;;;;;9.02;6.68;;;13.70;99.90;;;;;;5091100;28;20047;-73
2022/05/22 06:25:22;;;;;;;9.73;7.13;;;13.70;99.90;;;;;;5090912;28;20543;-77
2022/05/22 06:27:48;;;;;;;15.00;7.40;;;13.90;99.90;;;;;;5089380;28;20069;-76
2022/05/22 06:30:15;;;;;;;14.40;7.85;;;13.90;99.90;;;;;;5089417;28;20139;-77
2022/05/22 06:32:42;;;;;;;18.05;6.90;;;14.00;99.90;;;;;;5088122;28;20395;-75
2022/05/22 06:35:10;;;;;;;11.38;6.82;;;14.00;99.90;;;;;;5090595;28;20327;-75
2022/05/22 06:37:36;;;;;;;15.85;7.75;;;14.10;99.90;;;;;;5090591;28;20067;-76
2022/05/22 06:40:02;;;;;;;14.35;6.70;;;14.20;99.90;;;;;;5087605;28;20073;-76
2022/05/22 06:42:36;;;;;;;12.20;6.95;;;14.20;99.90;;;;;;5090525;28;20491;-76
2022/05/22 06:45:17;;;;;;;12.52;6.93;;;14.30;99.90;;;;;;5084743;28;20024;-75
2022/05/22 06:47:44;;;;;;;23.38;7.25;;;14.40;99.90;;;;;;5090869;28;20051;-75
2022/05/22 06:50:13;;;;;;;12.13;6.82;;;14.40;99.90;;;;;;5090700;28;20361;-75
2022/05/22 06:52:38;;;;;;;9.48;6.57;;;14.50;99.90;;;;;;5093626;28;20044;-77
2022/05/22 06:55:05;;;;;;;14.98;6.75;;;14.50;99.90;;;;;;5094509;28;20071;-77
2022/05/22 06:57:31;;;;;;;8.02;6.40;;;14.60;99.90;;;;;;5094569;28;20510;-76
2022/05/22 06:59:58;;;;;;;13.50;6.65;;;14.70;99.90;;;;;;5094084;28;20042;-76
2022/05/22 07:02:27;;;;;;;6.97;4.60;;;14.80;99.90;;;;;;5094621;28;20423;-77
2022/05/22 07:04:55;;;;;;;13.05;5.38;;;14.90;99.90;;;;;;5092923;28;20057;-75
2022/05/22 07:07:21;;;;;;;6.35;4.97;;;14.90;99.90;;;;;;5094355;28;20024;-74
2022/05/22 07:09:47;;;;;;;8.27;5.00;;;15.00;99.90;;;;;;5094797;28;20076;-76
2022/05/22 07:12:18;;;;;;;12.55;4.68;;;15.00;99.90;;;;;;5094843;28;20031;-75
2022/05/22 07:14:44;;;;;;;7.57;4.40;;;15.10;99.90;;;;;;5095612;28;20028;-76
2022/05/22 07:17:11;;;;;;;11.48;4.70;;;15.10;99.90;;;;;;5095354;28;20032;-74
2022/05/22 07:19:37;;;;;;;13.70;4.75;;;15.10;99.90;;;;;;5095535;28;20024;-75
2022/05/22 07:22:05;;;;;;;10.68;4.13;;;15.20;99.90;;;;;;5095335;28;20032;-76
2022/05/22 07:24:31;;;;;;;6.25;3.72;;;15.20;99.90;;;;;;5095416;28;20035;-76
2022/05/22 07:26:57;;;;;;;13.63;4.43;;;15.30;99.90;;;;;;5094859;28;20028;-75
2022/05/22 07:29:23;;;;;;;12.20;4.20;;;15.30;99.90;;;;;;5095239;28;20030;-76
2022/05/22 07:31:49;;;;;;;5.95;4.00;;;15.40;99.90;;;;;;5095432;28;20103;-76
2022/05/22 07:34:15;;;;;;;14.98;5.65;;;15.30;99.90;;;;;;5095067;28;20054;-75
2022/05/22 07:36:41;;;;;;;7.05;3.83;;;15.40;99.90;;;;;;5095627;28;20456;-76
2022/05/22 07:39:06;;;;;;;8.23;4.15;;;15.50;99.90;;;;;;5095591;28;20047;-77
2022/05/22 07:41:32;;;;;;;12.43;4.10;;;15.50;99.90;;;;;;5094493;28;20373;-75
2022/05/22 07:43:59;;;;;;;9.07;3.45;;;15.50;99.90;;;;;;5092287;28;20062;-75
2022/05/22 07:46:25;;;;;;;8.85;4.00;;;15.60;99.90;;;;;;5094112;28;20034;-76
2022/05/22 07:48:50;;;;;;;9.20;4.70;;;15.70;99.90;;;;;;5094406;28;20024;-74
2022/05/22 07:51:16;;;;;;;14.95;4.15;;;15.80;99.90;;;;;;5091503;28;20012;-74
2022/05/22 07:53:42;;;;;;;10.93;4.30;;;15.80;99.90;;;;;;5092852;28;20061;-73
2022/05/22 07:56:07;;;;;;;8.75;3.65;;;15.80;99.90;;;;;;5093528;28;20035;-73
2022/05/22 07:58:35;;;;;;;6.22;3.72;;;15.80;99.90;;;;;;5094375;28;20055;-75
2022/05/22 08:01:01;;;;;;;8.27;4.00;;;15.90;99.90;;;;;;5093600;28;20040;-75
2022/05/22 08:03:26;;;;;;;10.18;4.55;;;15.90;99.90;;;;;;5092988;28;20036;-74
2022/05/22 08:05:54;;;;;;;7.70;3.97;;;15.90;99.90;;;;;;5075053;28;20460;-73
2022/05/22 08:08:20;;;;;;;8.07;3.60;;;16.00;99.90;;;;;;5093757;28;20124;-74
2022/05/22 08:10:46;;;;;;;12.50;4.28;;;16.00;99.90;;;;;;5093715;28;20031;-74
2022/05/22 08:13:12;;;;;;;11.32;4.30;;;16.20;99.90;;;;;;5074893;28;20127;-74
2022/05/22 08:15:39;;;;;;;6.40;3.63;;;16.30;99.90;;;;;;5092585;28;20391;-75
2022/05/22 08:18:07;;;;;;;8.93;3.58;;;16.30;99.90;;;;;;5090185;28;20027;-75
2022/05/22 08:20:33;;;;;;;11.82;3.33;;;16.40;99.90;;;;;;5094034;28;20032;-74
2022/05/22 08:23:02;;;;;;;10.98;4.25;;;16.40;99.90;;;;;;5093802;28;20040;-74
2022/05/22 08:25:29;;;;;;;10.55;4.00;;;16.50;99.90;;;;;;5094471;28;20020;-74
2022/05/22 08:27:55;;;;;;;11.07;4.20;;;16.60;99.90;;;;;;5094584;28;20111;-74
2022/05/22 08:30:23;;;;;;;11.45;3.60;;;16.70;99.90;;;;;;5094281;28;20020;-74
2022/05/22 08:32:50;;;;;;;8.38;3.92;;;16.80;99.90;;;;;;5094300;28;20034;-74
2022/05/22 08:35:31;;;;;;;8.65;4.30;;;16.90;99.90;;;;;;5099259;28;20034;-74
2022/05/22 08:37:57;;;;;;;;;;;17.00;99.90;;;;;;5102313;28;20036;-75
2022/05/22 08:40:25;;;;;;;6.03;3.03;;;17.00;99.90;;;;;;5094464;28;19912;-73
2022/05/22 08:43:08;;;;;;;8.18;3.33;;;17.00;99.90;;;;;;5094077;28;20024;-74
2022/05/22 08:45:38;;;;;;;12.82;3.97;;;17.10;99.90;;;;;;5093667;28;20510;-74
2022/05/22 08:48:24;;;;;;;6.38;3.85;;;17.20;99.90;;;;;;5093722;28;20024;-75
2022/05/22 08:50:53;;;;;;;13.93;4.18;;;17.30;99.90;;;;;;5093997;28;20032;-75
2022/05/22 08:53:25;;;;;;;6.18;3.47;;;17.40;99.90;;;;;;5093184;28;20385;-74
2022/05/22 08:58:58;;;;;;;9.95;4.47;;;17.50;99.90;;;;;;5093275;28;20416;-73
2022/05/22 09:01:41;;;;;;;6.97;3.38;;;17.70;99.90;;;;;;5093684;28;20047;-74
2022/05/22 09:04:22;;;;;;;8.23;3.95;;;17.80;99.90;;;;;;5091623;28;20031;-73
2022/05/22 09:06:58;;;;;;;;;;;17.90;99.90;;;;;;5089996;28;20020;-74
2022/05/22 09:09:27;;;;;;;6.78;3.30;;;18.00;99.90;;;;;;5091203;28;19908;-74
2022/05/22 09:12:20;;;;;;;8.25;3.58;;;18.10;99.90;;;;;;5092150;28;20043;-74
2022/05/22 09:14:54;;;;;;;5.25;2.85;;;18.30;99.90;;;;;;5091550;28;20501;-74
2022/05/22 09:17:27;;;;;;;6.85;3.28;;;18.40;99.90;;;;;;5092720;28;20049;-74
2022/05/22 09:20:13;;;;;;;8.65;2.78;;;17.90;99.90;;;;;;5091840;28;20491;-74
2022/05/22 09:22:53;;;;;;;6.32;3.17;;;18.50;99.90;;;;;;5092794;28;20480;-73
2022/05/22 09:25:54;;;;;;;7.78;3.20;;;18.60;99.90;;;;;;5092888;28;20047;-73
2022/05/22 09:28:40;;;;;;;6.20;3.10;;;18.60;99.90;;;;;;5010554;28;20030;-73
2022/05/22 09:31:39;;;;;;;5.88;2.80;;;18.60;99.90;;;;;;5087244;28;20075;-73
2022/05/22 09:34:14;;;;;;;6.93;3.20;;;18.60;99.90;;;;;;5092687;28;20123;-73
2022/05/22 09:37:15;;;;;;;7.32;2.80;;;18.60;99.90;;;;;;5093157;28;20111;-73
2022/05/22 09:39:58;;;;;;;6.93;2.88;;;18.60;99.90;;;;;;5093164;28;20103;-74
2022/05/22 09:43:01;;;;;;;8.52;2.38;;;18.60;99.90;;;;;;5092682;28;20035;-74
2022/05/22 09:45:46;;;;;;;6.00;2.70;;;18.70;99.90;;;;;;5090545;28;20419;-72
2022/05/22 09:48:20;;;;;;;8.38;3.75;;;18.70;99.90;;;;;;5089391;28;20028;-73
2022/05/22 09:50:54;;;;;;;7.10;3.10;;;18.80;99.90;;;;;;5092719;28;20050;-73
2022/05/22 09:53:46;;;;;;;6.78;3.17;;;18.90;99.90;;;;;;5092923;28;20024;-73
2022/05/22 09:56:20;;;;;;;7.78;3.33;;;19.00;99.90;;;;;;5087155;28;20035;-73
2022/05/22 09:59:08;;;;;;;10.20;4.22;;;19.00;99.90;;;;;;5080005;28;20068;-74
2022/05/22 10:01:40;;;;;;;7.85;3.25;;;19.10;99.90;;;;;;5072147;28;20091;-73
2022/05/22 10:04:19;;;;;;;5.13;3.13;;;19.30;99.90;;;;;;5072135;28;20055;-72
2022/05/22 10:06:58;;;;;;;7.70;3.08;;;19.30;99.90;;;;;;5072569;28;20048;-73
2022/05/22 10:09:53;;;;;;;5.93;3.58;;;19.50;99.90;;;;;;5072158;28;20020;-73
2022/05/22 10:12:48;;;;;;;10.45;3.95;;;19.60;99.90;;;;;;5076329;28;20129;-73
2022/05/22 10:15:40;;;;;;;6.65;2.92;;;19.60;99.90;;;;;;5090714;28;20077;-73
2022/05/22 10:18:15;;;;;;;5.75;2.47;;;19.70;99.90;;;;;;5089522;28;20111;-73
2022/05/22 10:21:00;;;;;;;8.90;4.00;;;19.80;99.70;;;;;;5091027;28;20066;-72
2022/05/22 10:23:46;;;;;;;6.63;3.10;;;19.90;98.80;;;;;;5088263;28;20570;-73
2022/05/22 10:26:20;;;;;;;5.95;2.92;;;20.00;98.70;;;;;;5089267;28;20032;-73
2022/05/22 10:29:16;;;;;;;9.48;2.88;;;20.10;99.10;;;;;;5091649;28;20027;-74
2022/05/22 10:31:55;;;;;;;9.25;3.40;;;20.20;98.70;;;;;;5091581;28;20064;-74
2022/05/22 10:34:39;;;;;;;5.80;3.10;;;20.20;98.80;;;;;;5092305;28;20529;-73
2022/05/22 10:37:32;;;;;;;5.57;2.90;;;20.30;98.80;;;;;;5091731;28;20039;-73
2022/05/22 10:40:03;;;;;;;10.27;3.80;;;20.30;98.90;;;;;;5091467;28;20059;-72
2022/05/22 10:42:47;;;;;;;9.32;3.28;;;20.30;98.50;;;;;;5092267;28;20044;-74
2022/05/22 10:45:34;;;;;;;7.07;3.15;;;20.30;98.80;;;;;;5091272;28;20063;-74
2022/05/22 10:48:17;;;;;;;6.22;2.83;;;20.50;98.70;;;;;;5091773;28;20070;-75
2022/05/22 10:51:04;;;;;;;7.68;3.42;;;20.60;98.80;;;;;;5090313;28;20028;-74
2022/05/22 10:53:38;;;;;;;6.05;3.47;;;20.70;98.00;;;;;;5090667;28;20384;-74
2022/05/22 10:56:26;;;;;;;6.28;3.00;;;20.70;97.30;;;;;;5092246;28;20028;-74
2022/05/22 10:58:57;;;;;;;5.50;2.50;;;20.70;97.10;;;;;;5089344;28;20044;-75
2022/05/22 11:01:30;;;;;;;6.53;2.55;;;20.80;97.10;;;;;;5091551;28;20076;-75
2022/05/22 11:04:06;;;;;;;5.90;2.63;;;20.80;97.20;;;;;;5092211;28;20026;-75
2022/05/22 11:06:32;;;;;;;4.70;2.55;;;20.90;96.30;;;;;;5089896;28;20468;-73
2022/05/22 11:08:59;;;;;;;5.60;2.90;;;20.90;95.70;;;;;;5089610;28;20024;-75
2022/05/22 11:11:28;;;;;;;5.40;2.63;;;20.90;95.70;;;;;;5089466;28;20078;-75
2022/05/22 11:14:07;;;;;;;5.55;3.17;;;20.90;96.00;;;;;;5090818;28;20028;-75
2022/05/22 11:16:32;;;;;;;9.27;4.55;;;21.00;96.70;;;;;;5092206;28;20115;-75
2022/05/22 11:19:28;;;;;;;10.48;3.72;;;20.90;96.80;;;;;;5091069;28;20540;-74
2022/05/22 11:21:56;;;;;;;8.07;3.10;;;20.90;96.80;;;;;;5070524;28;20471;-74
2022/05/22 11:24:29;;;;;;;7.45;3.15;;;20.90;97.10;;;;;;5092300;28;20023;-74
2022/05/22 11:27:28;;;;;;;7.97;2.75;;;20.90;95.50;;;;;;5094588;28;20020;-75
2022/05/22 11:30:00;;;;;;;9.10;3.13;;;20.90;95.10;;;;;;5007136;28;20517;-74
2022/05/22 11:32:41;;;;;;;8.77;3.28;;;21.00;95.40;;;;;;5091944;28;20028;-74
2022/05/22 11:35:14;;;;;;;;;;;21.10;95.60;;;;;;5091451;28;20460;-73
2022/05/22 11:38:08;;;;;;;5.47;3.70;;;21.10;96.00;;;;;;5091618;28;19911;-74
2022/05/22 11:41:00;;;;;;;7.93;2.95;;;21.10;95.70;;;;;;5094855;28;20040;-75
2022/05/22 11:43:42;;;;;;;2.55;1.80;;;21.20;95.30;;;;;;5092497;28;20145;-74
2022/05/22 11:46:33;;;;;;;9.27;2.72;;;21.30;94.80;;;;;;5093331;28;20048;-74
2022/05/22 11:49:17;;;;;;;9.10;2.22;;;21.30;93.90;;;;;;5094346;28;20059;-74
2022/05/22 11:51:55;;;;;;;4.82;1.83;;;21.30;94.40;;;;;;5095444;28;20115;-74
2022/05/22 11:54:43;;;;;;;5.38;2.65;;;21.40;93.50;;;;;;5095153;28;20353;-74
2022/05/22 11:57:27;;;;;;;5.72;2.47;;;21.50;93.60;;;;;;5094472;28;20105;-74
2022/05/22 12:00:17;;;;;;;5.75;1.88;;;21.60;93.80;;;;;;5094743;28;20535;-75
2022/05/22 12:03:02;;;;;;;;;;;21.70;93.70;;;;;;5094930;28;20024;-74
2022/05/22 12:05:55;;;;;;;5.70;3.05;;;21.80;92.90;;;;;;5094989;28;19956;-74
2022/05/22 12:08:45;;;;;;;7.28;2.40;;;21.80;93.00;;;;;;5094166;28;20027;-75
2022/05/22 12:11:24;;;;;;;3.95;2.00;;;21.80;93.30;;;;;;5074188;28;20036;-73
2022/05/22 12:14:31;;;;;;;6.15;3.05;;;21.90;93.30;;;;;;5074331;28;20024;-74
2022/05/22 12:17:25;;;;;;;7.47;3.20;;;22.00;92.80;;;;;;5073899;28;20090;-76
2022/05/22 12:20:20;;;;;;;7.45;2.80;;;22.10;91.80;;;;;;5093071;28;20032;-73
2022/05/22 12:23:13;;;;;;;7.75;2.70;;;22.00;92.10;;;;;;5094395;28;20055;-74
2022/05/22 12:25:49;;;;;;;6.28;2.47;;;22.00;92.90;;;;;;5094232;28;20472;-75
2022/05/22 12:28:29;;;;;;;6.50;3.22;;;22.10;92.60;;;;;;5094444;28;20028;-74
2022/05/22 12:30:57;;;;;;;8.73;2.88;;;22.20;92.30;;;;;;5093616;28;20032;-73
2022/05/22 12:33:26;;;;;;;8.23;2.60;;;22.20;93.50;;;;;;5094736;28;20048;-73
2022/05/22 12:35:52;;;;;;;10.15;3.80;;;22.20;93.20;;;;;;5094071;28;20023;-73
2022/05/22 12:38:18;;;;;;;6.53;3.20;;;22.40;92.20;;;;;;5093627;28;20396;-73
2022/05/22 12:41:11;;;;;;;6.18;2.70;;;22.50;92.40;;;;;;5094096;28;20031;-73
2022/05/22 12:43:39;;;;;;;6.63;3.03;;;22.50;92.70;;;;;;5094013;28;20033;-74
2022/05/22 12:46:07;;;;;;;7.25;2.30;;;22.60;93.40;;;;;;5093833;28;20042;-74
2022/05/22 12:48:32;;;;;;;9.95;3.15;;;22.70;93.10;;;;;;5093223;28;20465;-74
2022/05/22 12:51:07;;;;;;;13.02;3.70;;;22.80;93.00;;;;;;5093200;28;20091;-73
2022/05/22 12:53:34;;;;;;;6.47;3.03;;;22.90;92.10;;;;;;5094017;28;20027;-74
2022/05/22 12:56:29;;;;;;;7.65;3.08;;;22.90;92.10;;;;;;5093915;28;20417;-73
2022/05/22 12:59:00;;;;;;;6.03;2.40;;;23.00;92.40;;;;;;5075706;28;20085;-73
2022/05/22 13:01:32;;;;;;;7.40;2.47;;;22.90;92.30;;;;;;5093919;28;20040;-73
2022/05/22 13:04:01;;;;;;;4.82;2.33;;;23.00;92.00;;;;;;5093673;28;20044;-73
2022/05/22 13:06:42;;;;;;;5.93;2.30;;;23.00;92.00;;;;;;5093433;28;20024;-74
2022/05/22 13:09:07;;;;;;;;;;;23.10;91.80;;;;;;5094092;28;20181;-73
2022/05/22 13:11:49;;;;;;;5.03;2.53;;;23.30;91.40;;;;;;5093330;28;19911;-74
2022/05/22 13:14:28;;;;;;;6.03;2.80;;;23.50;90.50;;;;;;5093622;28;20103;-74
2022/05/22 13:16:54;;;;;;;3.95;1.90;;;23.60;90.60;;;;;;5093322;28;20050;-74